Time;durP1;ratioP1;P1;durP2;ratioP2;P2;SDS_P1;SDS_P2;PMS_P1;PMS_P2;Temp;Humidity;BMP_temperature;BMP_pressure;BME280_temperature;BME280_humidity;BME280_pressure;Samples;Min_cycle;Max_cycle;Signal;HPM_P1;HPM_P2
2022/07/06 00:00:23;;;;;;;57.38;24.95;;;;;;;;;;7731514;23;20058;-48
2022/07/06 00:03:37;;;;;;;49.58;25.15;;;;;;;;;;7727386;23;20059;-51
2022/07/06 00:06:38;;;;;;;47.45;24.45;;;;;;;;;;7730651;23;20020;-47
2022/07/06 00:09:39;;;;;;;50.10;24.57;;;;;;;;;;7728633;23;20024;-55
2022/07/06 00:12:39;;;;;;;45.25;22.77;;;;;;;;;;7730036;23;20343;-47
2022/07/06 00:15:40;;;;;;;42.80;23.27;;;;;;;;;;7728718;23;20020;-55
2022/07/06 00:18:40;;;;;;;46.63;24.58;;;;;;;;;;7744993;23;20027;-52
2022/07/06 00:21:41;;;;;;;48.07;24.43;;;;;;;;;;7731393;23;20351;-48
2022/07/06 00:24:42;;;;;;;49.07;25.63;;;;;;;;;;7728766;23;20470;-54
2022/07/06 00:27:42;;;;;;;49.75;25.77;;;;;;;;;;7729408;23;20681;-52
2022/07/06 00:30:43;;;;;;;48.73;25.37;;;;;;;;;;7731396;23;20016;-48
2022/07/06 00:33:43;;;;;;;50.17;25.52;;;;;;;;;;7727911;23;20416;-47
2022/07/06 00:36:44;;;;;;;47.23;25.07;;;;;;;;;;7729283;23;20016;-54
2022/07/06 00:39:44;;;;;;;53.30;25.42;;;;;;;;;;7734676;23;20099;-55
2022/07/06 00:42:47;;;;;;;51.00;25.20;;;;;;;;;;7735673;23;20024;-49
2022/07/06 00:45:48;;;;;;;49.28;24.90;;;;;;;;;;7735529;23;20024;-56
2022/07/06 00:48:49;;;;;;;48.42;24.33;;;;;;;;;;7735778;23;20327;-50
2022/07/06 00:51:49;;;;;;;48.20;24.00;;;;;;;;;;7740133;23;20515;-60
2022/07/06 00:54:51;;;;;;;41.37;21.97;;;;;;;;;;7735884;23;20020;-53
2022/07/06 00:57:52;;;;;;;43.42;23.33;;;;;;;;;;7746583;23;20360;-50
2022/07/06 01:00:52;;;;;;;45.03;23.00;;;;;;;;;;7746937;23;20012;-50
2022/07/06 01:03:53;;;;;;;43.47;22.80;;;;;;;;;;7747332;23;20047;-56
2022/07/06 01:06:53;;;;;;;40.05;22.60;;;;;;;;;;7746975;23;20012;-51
2022/07/06 01:09:54;;;;;;;39.15;22.05;;;;;;;;;;7746546;23;20095;-52
2022/07/06 01:12:56;;;;;;;43.93;23.00;;;;;;;;;;7741696;23;20023;-50
2022/07/06 01:15:57;;;;;;;;;;;;;;;;;;7741214;23;20071;-50
2022/07/06 01:18:57;;;;;;;42.85;22.50;;;;;;;;;;7743571;23;19998;-50
2022/07/06 01:21:58;;;;;;;45.00;23.92;;;;;;;;;;7742223;23;20490;-48
2022/07/06 01:24:58;;;;;;;48.63;25.27;;;;;;;;;;7740035;23;20402;-48
2022/07/06 01:27:59;;;;;;;43.65;23.88;;;;;;;;;;7737438;23;20099;-49
2022/07/06 01:30:59;;;;;;;49.70;24.97;;;;;;;;;;7740068;23;20020;-52
2022/07/06 01:34:01;;;;;;;49.60;26.63;;;;;;;;;;7752427;23;20039;-49
2022/07/06 01:37:01;;;;;;;46.80;26.42;;;;;;;;;;7741279;23;20012;-50
2022/07/06 01:40:07;;;;;;;47.95;28.52;;;;;;;;;;7740002;23;20042;-53
2022/07/06 01:43:07;;;;;;;54.95;29.95;;;;;;;;;;7740092;23;20044;-51
2022/07/06 01:46:08;;;;;;;60.53;29.05;;;;;;;;;;7740146;23;20028;-49
2022/07/06 01:49:08;;;;;;;54.23;29.40;;;;;;;;;;7737472;23;20016;-49
2022/07/06 01:52:09;;;;;;;53.55;29.60;;;;;;;;;;7737664;23;20027;-48
2022/07/06 01:55:10;;;;;;;58.00;30.30;;;;;;;;;;7738309;23;20282;-50
2022/07/06 01:58:10;;;;;;;54.40;30.00;;;;;;;;;;7743028;23;20227;-49
2022/07/06 02:01:16;;;;;;;54.33;30.30;;;;;;;;;;7738541;23;20086;-50
2022/07/06 02:04:17;;;;;;;59.28;31.98;;;;;;;;;;7743565;23;20390;-51
2022/07/06 02:07:17;;;;;;;59.08;31.15;;;;;;;;;;7742755;23;20016;-49
2022/07/06 02:10:18;;;;;;;59.78;31.80;;;;;;;;;;7742239;23;20099;-53
2022/07/06 02:13:19;;;;;;;59.53;31.83;;;;;;;;;;7740316;23;20102;-52
2022/07/06 02:16:20;;;;;;;55.08;30.45;;;;;;;;;;7743824;23;20099;-55
2022/07/06 02:19:20;;;;;;;57.92;31.95;;;;;;;;;;7746019;23;20074;-50
2022/07/06 02:22:21;;;;;;;53.95;30.15;;;;;;;;;;7747478;23;20031;-49
2022/07/06 02:25:21;;;;;;;55.75;30.08;;;;;;;;;;7746137;23;20568;-50
2022/07/06 02:28:22;;;;;;;51.57;29.57;;;;;;;;;;7747003;23;20048;-48
2022/07/06 02:31:23;;;;;;;53.95;30.02;;;;;;;;;;7743597;23;20027;-49
2022/07/06 02:34:23;;;;;;;50.87;28.67;;;;;;;;;;7741561;23;20022;-49
2022/07/06 02:37:24;;;;;;;55.67;30.17;;;;;;;;;;7740080;23;20092;-54
2022/07/06 02:40:25;;;;;;;47.50;27.00;;;;;;;;;;7740793;23;20070;-50
2022/07/06 02:43:25;;;;;;;54.42;29.30;;;;;;;;;;7738524;23;20016;-50
2022/07/06 02:46:26;;;;;;;59.10;29.60;;;;;;;;;;7740452;23;20025;-49
2022/07/06 02:49:27;;;;;;;51.43;29.13;;;;;;;;;;7739666;23;20091;-48
2022/07/06 02:52:27;;;;;;;50.20;28.23;;;;;;;;;;7742086;23;20044;-50
2022/07/06 02:55:28;;;;;;;53.00;28.33;;;;;;;;;;7741270;23;20016;-55
2022/07/06 02:58:28;;;;;;;49.20;28.10;;;;;;;;;;7740692;23;20107;-49
2022/07/06 03:01:29;;;;;;;49.83;27.20;;;;;;;;;;7738016;23;20039;-51
2022/07/06 03:04:30;;;;;;;50.10;27.70;;;;;;;;;;7742337;23;20024;-49
2022/07/06 03:07:30;;;;;;;53.47;27.17;;;;;;;;;;7742649;23;20394;-49
2022/07/06 03:10:31;;;;;;;55.30;28.85;;;;;;;;;;7740557;23;20012;-53
2022/07/06 03:13:31;;;;;;;55.83;28.48;;;;;;;;;;7740916;23;20020;-50
2022/07/06 03:16:32;;;;;;;51.45;27.05;;;;;;;;;;7743680;23;20112;-49
2022/07/06 03:19:33;;;;;;;48.35;26.85;;;;;;;;;;7742096;23;20386;-50
2022/07/06 03:22:34;;;;;;;48.67;27.13;;;;;;;;;;7741145;23;20340;-48
2022/07/06 03:25:34;;;;;;;49.10;26.48;;;;;;;;;;7743431;23;20095;-57
2022/07/06 03:28:35;;;;;;;50.17;26.02;;;;;;;;;;7742230;23;20392;-50
2022/07/06 03:31:35;;;;;;;46.60;26.52;;;;;;;;;;7744495;23;20091;-51
2022/07/06 03:34:36;;;;;;;43.08;25.73;;;;;;;;;;7741734;23;20107;-49
2022/07/06 03:37:36;;;;;;;45.80;26.13;;;;;;;;;;7743694;23;20138;-52
2022/07/06 03:40:37;;;;;;;46.55;26.42;;;;;;;;;;7744508;23;20020;-49
2022/07/06 03:43:38;;;;;;;44.78;26.17;;;;;;;;;;7743142;23;20126;-51
2022/07/06 03:46:38;;;;;;;48.05;27.20;;;;;;;;;;7743283;23;20079;-52
2022/07/06 03:49:39;;;;;;;47.90;26.48;;;;;;;;;;7744354;23;20527;-49
2022/07/06 03:52:43;;;;;;;50.47;28.30;;;;;;;;;;7746695;23;20444;-50
2022/07/06 03:56:27;;;;;;;47.15;27.98;;;;;;;;;;7742431;23;20016;-50
2022/07/06 03:59:04;;;;;;;52.35;28.73;;;;;;;;;;7742724;23;20103;-52
2022/07/06 04:02:05;;;;;;;45.70;26.17;;;;;;;;;;7740308;23;20323;-51
2022/07/06 04:05:06;;;;;;;44.67;26.98;;;;;;;;;;7739956;23;20020;-49
2022/07/06 04:08:07;;;;;;;47.13;27.37;;;;;;;;;;7743827;23;20016;-51
2022/07/06 04:11:07;;;;;;;41.35;24.45;;;;;;;;;;7742206;23;20728;-50
2022/07/06 04:14:08;;;;;;;41.30;25.33;;;;;;;;;;7740363;23;20024;-55
2022/07/06 04:20:27;;;;;;;40.60;24.50;;;;;;;;;;7744142;23;20012;-51
2022/07/06 04:23:28;;;;;;;39.55;23.88;;;;;;;;;;7743450;23;20551;-49
2022/07/06 04:26:29;;;;;;;40.15;22.75;;;;;;;;;;7745006;23;20020;-51
2022/07/06 04:29:29;;;;;;;38.15;22.85;;;;;;;;;;7744739;23;20024;-49
2022/07/06 04:32:30;;;;;;;41.20;22.55;;;;;;;;;;7742201;23;20351;-51
2022/07/06 04:35:31;;;;;;;40.03;23.27;;;;;;;;;;7740121;23;20024;-50
2022/07/06 04:38:31;;;;;;;35.65;22.50;;;;;;;;;;7755507;23;20016;-52
2022/07/06 04:41:32;;;;;;;37.17;22.07;;;;;;;;;;7741547;23;20016;-49
2022/07/06 04:44:32;;;;;;;36.05;21.55;;;;;;;;;;7753636;23;20016;-50
2022/07/06 04:47:34;;;;;;;38.72;22.33;;;;;;;;;;7740965;23;20035;-49
2022/07/06 04:50:35;;;;;;;36.00;22.20;;;;;;;;;;7742236;23;20089;-48
2022/07/06 04:53:36;;;;;;;33.83;21.27;;;;;;;;;;7741424;23;20472;-51
2022/07/06 04:56:37;;;;;;;33.70;20.52;;;;;;;;;;7740107;23;20336;-49
2022/07/06 04:59:38;;;;;;;33.60;21.35;;;;;;;;;;7744136;23;20020;-52
2022/07/06 05:02:38;;;;;;;39.65;22.20;;;;;;;;;;7743309;23;20083;-50
2022/07/06 05:05:39;;;;;;;35.53;21.63;;;;;;;;;;7745414;23;20020;-50
2022/07/06 05:08:39;;;;;;;36.58;21.48;;;;;;;;;;7746156;23;20456;-48
2022/07/06 05:11:40;;;;;;;35.83;22.35;;;;;;;;;;7745952;23;20027;-53
2022/07/06 05:14:41;;;;;;;39.45;23.08;;;;;;;;;;7745003;23;20039;-50
2022/07/06 05:17:41;;;;;;;45.13;23.50;;;;;;;;;;7745518;23;20012;-49
2022/07/06 05:20:42;;;;;;;41.73;24.30;;;;;;;;;;7744806;23;20084;-49
2022/07/06 05:23:43;;;;;;;42.17;23.50;;;;;;;;;;7745942;23;20444;-49
2022/07/06 05:26:43;;;;;;;42.55;23.50;;;;;;;;;;7743593;23;20336;-52
2022/07/06 05:29:44;;;;;;;40.08;22.38;;;;;;;;;;7745390;23;20110;-49
2022/07/06 05:32:44;;;;;;;39.47;23.40;;;;;;;;;;7746957;23;20024;-54
2022/07/06 05:35:45;;;;;;;37.03;21.58;;;;;;;;;;7745270;23;20020;-52
2022/07/06 05:38:46;;;;;;;41.03;23.73;;;;;;;;;;7745252;23;20039;-48
2022/07/06 05:41:47;;;;;;;36.30;22.60;;;;;;;;;;7744870;23;20020;-51
2022/07/06 05:44:47;;;;;;;38.47;22.47;;;;;;;;;;7746108;23;20095;-51
2022/07/06 05:51:07;;;;;;;28.17;18.77;;;;;;;;;;7747367;23;20091;-49
2022/07/06 05:54:08;;;;;;;26.37;17.53;;;;;;;;;;7746532;23;20386;-49
2022/07/06 05:57:08;;;;;;;25.10;17.10;;;;;;;;;;7746145;23;20446;-48
2022/07/06 06:00:09;;;;;;;28.40;18.27;;;;;;;;;;7744791;23;20839;-50
2022/07/06 06:03:10;;;;;;;26.57;17.57;;;;;;;;;;7738916;23;20026;-51
2022/07/06 06:06:10;;;;;;;22.17;15.27;;;;;;;;;;7738484;23;20023;-48
2022/07/06 06:09:11;;;;;;;22.20;15.73;;;;;;;;;;7739236;23;20496;-49
2022/07/06 06:12:11;;;;;;;19.47;14.60;;;;;;;;;;7740037;23;20523;-48
2022/07/06 06:15:12;;;;;;;22.77;15.27;;;;;;;;;;7742767;23;20024;-50
2022/07/06 06:18:13;;;;;;;19.07;13.93;;;;;;;;;;7744860;23;20023;-48
2022/07/06 06:21:13;;;;;;;18.73;13.73;;;;;;;;;;7745076;23;20016;-49
2022/07/06 06:24:14;;;;;;;19.90;14.17;;;;;;;;;;7757286;23;20019;-50
2022/07/06 06:27:15;;;;;;;21.93;14.27;;;;;;;;;;7744940;23;20091;-51
2022/07/06 06:30:16;;;;;;;20.30;13.40;;;;;;;;;;7746291;23;20047;-49
2022/07/06 06:33:20;;;;;;;20.77;14.17;;;;;;;;;;7745680;23;20149;-60
2022/07/06 06:36:21;;;;;;;20.05;14.60;;;;;;;;;;7746015;23;20040;-48
2022/07/06 06:39:22;;;;;;;22.70;15.67;;;;;;;;;;7746120;23;20099;-48
2022/07/06 06:42:22;;;;;;;26.47;16.57;;;;;;;;;;7745744;23;20440;-50
2022/07/06 06:45:23;;;;;;;27.45;18.58;;;;;;;;;;7745250;23;20102;-48
2022/07/06 06:48:23;;;;;;;34.47;20.87;;;;;;;;;;7746116;23;20452;-48
2022/07/06 06:51:24;;;;;;;41.77;23.57;;;;;;;;;;7747682;23;20026;-48
2022/07/06 06:54:25;;;;;;;40.63;23.40;;;;;;;;;;7746482;23;20347;-48
2022/07/06 06:57:25;;;;;;;38.00;23.43;;;;;;;;;;7745736;23;20768;-48
2022/07/06 07:00:26;;;;;;;47.13;24.73;;;;;;;;;;7747585;23;20382;-48
2022/07/06 07:03:26;;;;;;;44.47;25.58;;;;;;;;;;7746799;23;20339;-48
2022/07/06 07:06:27;;;;;;;42.83;24.63;;;;;;;;;;7747745;23;20020;-49
2022/07/06 07:09:28;;;;;;;41.08;24.02;;;;;;;;;;7747641;23;20325;-47
2022/07/06 07:12:28;;;;;;;45.10;27.10;;;;;;;;;;7747914;23;20020;-48
2022/07/06 07:15:29;;;;;;;46.65;26.80;;;;;;;;;;7747583;23;20020;-49
2022/07/06 07:18:29;;;;;;;41.65;25.60;;;;;;;;;;7747467;23;20040;-48
2022/07/06 07:21:30;;;;;;;43.83;26.20;;;;;;;;;;7743317;23;20468;-58
2022/07/06 07:24:30;;;;;;;43.30;25.67;;;;;;;;;;7744235;23;20113;-48
2022/07/06 07:27:31;;;;;;;39.60;25.02;;;;;;;;;;7741393;23;20116;-48
2022/07/06 07:30:32;;;;;;;34.80;23.13;;;;;;;;;;7743385;23;20020;-52
2022/07/06 07:33:33;;;;;;;37.60;22.88;;;;;;;;;;7746890;23;20016;-48
2022/07/06 07:36:33;;;;;;;34.97;22.60;;;;;;;;;;7747131;23;20397;-48
2022/07/06 07:39:34;;;;;;;28.40;20.93;;;;;;;;;;7746839;23;20099;-47
2022/07/06 07:42:35;;;;;;;27.95;19.95;;;;;;;;;;7746631;23;20103;-50
2022/07/06 07:45:36;;;;;;;25.30;18.95;;;;;;;;;;7747500;23;20082;-49
2022/07/06 07:48:36;;;;;;;25.17;19.38;;;;;;;;;;7746715;23;20070;-48
2022/07/06 07:51:37;;;;;;;26.38;20.67;;;;;;;;;;7746418;23;20093;-48
2022/07/06 07:54:37;;;;;;;26.70;21.08;;;;;;;;;;7744188;23;20020;-47
2022/07/06 07:57:38;;;;;;;35.63;25.98;;;;;;;;;;7745950;23;20389;-48
2022/07/06 08:00:39;;;;;;;38.78;27.80;;;;;;;;;;7720317;23;20027;-49
2022/07/06 08:03:39;;;;;;;38.78;26.08;;;;;;;;;;7747445;23;20400;-54
2022/07/06 08:06:40;;;;;;;33.25;24.15;;;;;;;;;;7748207;23;20016;-47
2022/07/06 08:09:41;;;;;;;27.65;21.42;;;;;;;;;;7746906;23;20038;-48
2022/07/06 08:12:42;;;;;;;25.98;19.73;;;;;;;;;;7747237;23;20058;-48
2022/07/06 08:15:42;;;;;;;24.70;19.80;;;;;;;;;;7746893;23;20123;-50
2022/07/06 08:18:43;;;;;;;25.35;18.98;;;;;;;;;;7746601;23;20375;-47
2022/07/06 08:21:44;;;;;;;20.33;17.65;;;;;;;;;;7747594;23;20385;-47
2022/07/06 08:24:45;;;;;;;21.73;16.27;;;;;;;;;;7744038;23;20024;-48
2022/07/06 08:27:45;;;;;;;21.38;14.15;;;;;;;;;;7741024;23;20592;-47
2022/07/06 08:30:47;;;;;;;14.23;12.35;;;;;;;;;;7740614;23;20020;-50
2022/07/06 08:33:48;;;;;;;16.70;12.80;;;;;;;;;;7753333;23;20020;-48
2022/07/06 08:36:50;;;;;;;16.58;11.35;;;;;;;;;;7741434;23;20192;-48
2022/07/06 08:39:51;;;;;;;14.25;11.15;;;;;;;;;;7752046;23;20054;-47
2022/07/06 08:42:53;;;;;;;13.00;11.53;;;;;;;;;;7740281;23;20016;-48
2022/07/06 08:45:54;;;;;;;12.57;10.98;;;;;;;;;;7739528;23;20340;-48
2022/07/06 08:48:56;;;;;;;14.23;11.40;;;;;;;;;;7741257;23;20464;-48
2022/07/06 08:51:57;;;;;;;11.75;10.00;;;;;;;;;;7740097;23;20042;-48
2022/07/06 08:54:58;;;;;;;11.30;9.37;;;;;;;;;;7741663;23;20016;-48
2022/07/06 08:57:59;;;;;;;;;;;;;;;;;;7742169;23;20020;-48
2022/07/06 09:01:00;;;;;;;9.73;8.23;;;;;;;;;;7739398;23;19915;-48
2022/07/06 09:04:03;;;;;;;9.97;6.73;;;;;;;;;;7742030;23;20016;-51
2022/07/06 09:07:04;;;;;;;10.45;6.45;;;;;;;;;;7740173;23;20103;-47
2022/07/06 09:10:06;;;;;;;7.67;5.70;;;;;;;;;;7742068;23;20053;-47
2022/07/06 09:13:08;;;;;;;7.25;4.95;;;;;;;;;;7737894;23;20065;-52
2022/07/06 09:16:14;;;;;;;7.35;4.95;;;;;;;;;;7740814;23;20031;-48
2022/07/06 09:19:16;;;;;;;7.40;4.72;;;;;;;;;;7743012;23;20119;-48
2022/07/06 09:22:32;;;;;;;5.13;4.35;;;;;;;;;;7742374;23;20103;-49
2022/07/06 09:25:35;;;;;;;6.53;3.70;;;;;;;;;;7740446;23;20482;-47
2022/07/06 09:28:45;;;;;;;7.05;4.22;;;;;;;;;;7738127;23;20031;-47
2022/07/06 09:32:05;;;;;;;7.30;4.50;;;;;;;;;;7740759;23;20435;-47
2022/07/06 09:35:06;;;;;;;5.45;4.07;;;;;;;;;;7738333;23;20067;-50
2022/07/06 09:38:11;;;;;;;5.03;4.00;;;;;;;;;;7740647;23;20066;-48
2022/07/06 09:41:12;;;;;;;5.75;4.20;;;;;;;;;;7742824;23;20261;-50
2022/07/06 09:44:13;;;;;;;5.20;4.00;;;;;;;;;;7742180;23;20016;-48
2022/07/06 09:47:14;;;;;;;7.53;4.30;;;;;;;;;;7742203;23;20449;-48
2022/07/06 09:50:17;;;;;;;4.90;4.00;;;;;;;;;;7741408;23;20042;-53
2022/07/06 09:53:19;;;;;;;5.68;4.00;;;;;;;;;;7740776;23;20023;-48
2022/07/06 09:56:20;;;;;;;5.22;3.70;;;;;;;;;;7738905;23;20516;-48
2022/07/06 09:59:28;;;;;;;8.07;3.90;;;;;;;;;;7754866;23;20095;-48
2022/07/06 10:02:29;;;;;;;5.07;3.58;;;;;;;;;;7737862;23;20016;-48
2022/07/06 10:05:31;;;;;;;6.57;4.20;;;;;;;;;;7741569;23;20039;-50
2022/07/06 10:08:33;;;;;;;6.28;3.58;;;;;;;;;;7742152;23;20325;-48
2022/07/06 10:11:42;;;;;;;5.00;3.22;;;;;;;;;;7734491;23;20016;-48
2022/07/06 10:14:43;;;;;;;4.10;3.20;;;;;;;;;;7738090;23;20039;-48
2022/07/06 10:17:47;;;;;;;4.30;3.03;;;;;;;;;;7738082;23;20116;-55
2022/07/06 10:20:48;;;;;;;5.47;3.40;;;;;;;;;;7740839;23;20419;-48
2022/07/06 10:23:49;;;;;;;5.50;3.50;;;;;;;;;;7738565;23;20365;-49
2022/07/06 10:26:51;;;;;;;5.57;3.58;;;;;;;;;;7741094;23;20036;-61
2022/07/06 10:29:51;;;;;;;5.28;3.85;;;;;;;;;;7742303;23;20016;-48
2022/07/06 10:32:54;;;;;;;6.47;4.37;;;;;;;;;;7744273;23;20020;-49
2022/07/06 10:35:56;;;;;;;5.10;3.67;;;;;;;;;;7745211;23;20016;-46
2022/07/06 10:38:57;;;;;;;6.07;3.17;;;;;;;;;;7746196;23;20044;-48
2022/07/06 10:41:57;;;;;;;6.17;3.40;;;;;;;;;;7745565;23;20096;-49
2022/07/06 10:44:58;;;;;;;6.23;3.70;;;;;;;;;;7746476;23;20103;-47
2022/07/06 10:48:10;;;;;;;4.40;3.33;;;;;;;;;;7744243;23;20803;-50
2022/07/06 10:51:22;;;;;;;5.95;3.42;;;;;;;;;;7745220;23;20023;-61
2022/07/06 10:54:23;;;;;;;4.70;3.67;;;;;;;;;;7746196;23;20012;-49
2022/07/06 10:57:24;;;;;;;5.50;3.63;;;;;;;;;;7741366;23;20273;-49
2022/07/06 11:00:25;;;;;;;5.00;3.70;;;;;;;;;;7742627;23;20058;-48
2022/07/06 11:03:31;;;;;;;6.10;3.97;;;;;;;;;;7740023;23;20519;-54
2022/07/06 11:06:34;;;;;;;5.43;3.90;;;;;;;;;;7744954;23;20098;-48
2022/07/06 11:09:35;;;;;;;5.65;3.53;;;;;;;;;;7743557;23;20051;-48
2022/07/06 11:12:35;;;;;;;5.50;3.30;;;;;;;;;;7745710;23;20103;-48
2022/07/06 11:15:49;;;;;;;4.10;3.33;;;;;;;;;;7744522;23;20068;-47
2022/07/06 11:18:59;;;;;;;5.28;3.20;;;;;;;;;;7743596;23;20490;-53
2022/07/06 11:22:09;;;;;;;4.97;3.10;;;;;;;;;;7745158;23;20490;-57
2022/07/06 11:25:10;;;;;;;4.82;3.05;;;;;;;;;;7744133;23;20032;-47
2022/07/06 11:28:14;;;;;;;5.20;3.20;;;;;;;;;;7744119;23;20061;-52
2022/07/06 11:31:15;;;;;;;4.47;3.13;;;;;;;;;;7743324;23;20023;-55
2022/07/06 11:34:27;;;;;;;6.13;2.83;;;;;;;;;;7745440;23;20482;-49
2022/07/06 11:37:27;;;;;;;;;;;;;;;;;;7748697;23;20016;-52
2022/07/06 11:40:29;;;;;;;4.88;2.97;;;;;;;;;;7747249;23;20250;-50
2022/07/06 11:43:30;;;;;;;4.18;3.38;;;;;;;;;;7746743;23;20027;-51
2022/07/06 11:46:33;;;;;;;4.00;3.27;;;;;;;;;;7745809;23;20024;-49
2022/07/06 11:49:36;;;;;;;5.68;3.70;;;;;;;;;;7746700;23;20071;-48
2022/07/06 11:52:37;;;;;;;5.65;3.60;;;;;;;;;;7746237;23;20035;-50
2022/07/06 11:55:37;;;;;;;6.00;3.93;;;;;;;;;;7746560;23;20142;-47
2022/07/06 11:58:40;;;;;;;5.20;3.60;;;;;;;;;;7747607;23;20447;-48
2022/07/06 12:01:43;;;;;;;5.55;4.40;;;;;;;;;;7746697;23;20020;-48
2022/07/06 12:04:46;;;;;;;6.93;4.43;;;;;;;;;;7719120;23;20040;-51
2022/07/06 12:07:46;;;;;;;5.78;4.30;;;;;;;;;;7745581;23;20375;-47
2022/07/06 12:10:47;;;;;;;5.23;3.90;;;;;;;;;;7742065;23;20043;-48
2022/07/06 12:13:49;;;;;;;5.20;3.70;;;;;;;;;;7741142;23;20103;-60
2022/07/06 12:16:50;;;;;;;5.88;3.95;;;;;;;;;;7737611;23;20119;-51
2022/07/06 12:19:54;;;;;;;10.95;8.60;;;;;;;;;;7739417;23;20020;-57
2022/07/06 12:23:06;;;;;;;4.68;3.78;;;;;;;;;;7738214;23;20118;-49
2022/07/06 12:26:07;;;;;;;7.10;3.95;;;;;;;;;;7743230;23;20016;-47
2022/07/06 12:29:10;;;;;;;;;;;;;;;;;;7746379;23;20035;-50
2022/07/06 12:32:17;;;;;;;4.82;3.85;;;;;;;;;;7746311;23;19962;-60
2022/07/06 12:35:22;;;;;;;4.97;3.90;;;;;;;;;;7746741;23;20035;-48
2022/07/06 12:38:29;;;;;;;6.18;3.80;;;;;;;;;;7743328;23;20035;-47
2022/07/06 12:41:32;;;;;;;6.47;3.60;;;;;;;;;;7746029;23;20024;-49
2022/07/06 12:44:41;;;;;;;5.85;3.60;;;;;;;;;;7741441;23;20020;-49
2022/07/06 12:47:58;;;;;;;4.72;3.38;;;;;;;;;;7740812;23;20020;-53
2022/07/06 12:50:58;;;;;;;4.40;3.72;;;;;;;;;;7742461;23;20078;-48
2022/07/06 12:54:13;;;;;;;5.10;3.70;;;;;;;;;;7742929;23;20047;-48
2022/07/06 12:57:23;;;;;;;5.32;3.85;;;;;;;;;;7740475;23;20019;-51
2022/07/06 13:00:24;;;;;;;5.32;3.58;;;;;;;;;;7739657;23;20522;-51
2022/07/06 13:03:25;;;;;;;6.17;3.70;;;;;;;;;;7740358;23;20103;-48
2022/07/06 13:06:33;;;;;;;4.13;3.57;;;;;;;;;;7741907;23;20257;-48
2022/07/06 13:09:34;;;;;;;5.25;3.63;;;;;;;;;;7739419;23;20016;-50
2022/07/06 13:12:36;;;;;;;4.87;3.83;;;;;;;;;;7740334;23;20101;-48
2022/07/06 13:15:36;;;;;;;6.75;3.80;;;;;;;;;;7751095;23;20522;-50
2022/07/06 13:18:37;;;;;;;4.93;4.00;;;;;;;;;;7743170;23;20062;-50
2022/07/06 13:21:38;;;;;;;4.87;3.80;;;;;;;;;;7738753;23;20090;-48
2022/07/06 13:24:38;;;;;;;4.60;3.90;;;;;;;;;;7741771;23;20055;-47
2022/07/06 13:27:39;;;;;;;7.27;4.10;;;;;;;;;;7741848;23;20028;-49
2022/07/06 13:30:39;;;;;;;6.30;3.70;;;;;;;;;;7740703;23;20024;-48
2022/07/06 13:33:40;;;;;;;5.17;3.47;;;;;;;;;;7743066;23;20320;-48
2022/07/06 13:36:41;;;;;;;5.70;3.67;;;;;;;;;;7745577;23;20404;-47
2022/07/06 13:39:42;;;;;;;5.03;3.22;;;;;;;;;;7743800;23;20020;-48
2022/07/06 13:42:43;;;;;;;4.10;3.10;;;;;;;;;;7743448;23;20082;-46
2022/07/06 13:45:43;;;;;;;4.13;3.13;;;;;;;;;;7738873;23;20065;-47
2022/07/06 13:48:44;;;;;;;3.10;2.20;;;;;;;;;;7741672;23;20020;-47
2022/07/06 13:51:45;;;;;;;4.77;2.80;;;;;;;;;;7741131;23;20465;-48
2022/07/06 13:55:06;;;;;;;3.55;2.40;;;;;;;;;;7739979;23;20028;-48
2022/07/06 13:58:06;;;;;;;3.05;2.42;;;;;;;;;;7741359;23;20027;-48
2022/07/06 14:01:07;;;;;;;5.00;3.20;;;;;;;;;;7745392;23;20031;-50
2022/07/06 14:04:08;;;;;;;4.07;2.93;;;;;;;;;;7758065;23;20219;-47
2022/07/06 14:07:08;;;;;;;4.93;3.20;;;;;;;;;;7744244;23;20103;-48
2022/07/06 14:10:09;;;;;;;4.83;3.20;;;;;;;;;;7744464;23;20504;-47
2022/07/06 14:13:10;;;;;;;5.43;3.00;;;;;;;;;;7741503;23;20099;-52
2022/07/06 14:16:10;;;;;;;6.33;3.93;;;;;;;;;;7741174;23;20016;-52
2022/07/06 14:19:11;;;;;;;5.97;3.55;;;;;;;;;;7738919;23;20051;-47
2022/07/06 14:22:12;;;;;;;5.00;2.97;;;;;;;;;;7742882;23;20019;-47
2022/07/06 14:25:12;;;;;;;8.07;3.53;;;;;;;;;;7739538;23;20099;-49
2022/07/06 14:28:13;;;;;;;4.60;3.50;;;;;;;;;;7739887;23;20023;-48
2022/07/06 14:31:15;;;;;;;4.70;3.70;;;;;;;;;;7741782;23;20352;-47
2022/07/06 14:34:15;;;;;;;;;;;;;;;;;;7742291;23;20525;-50
2022/07/06 14:37:16;;;;;;;4.75;3.33;;;;;;;;;;7741135;23;19916;-60
2022/07/06 14:40:17;;;;;;;8.73;3.67;;;;;;;;;;7724847;23;20027;-48
2022/07/06 14:43:17;;;;;;;5.07;3.53;;;;;;;;;;7742455;23;20027;-58
2022/07/06 14:46:18;;;;;;;7.17;3.33;;;;;;;;;;7730137;23;20031;-51
2022/07/06 14:49:18;;;;;;;6.67;3.47;;;;;;;;;;7726389;23;20023;-48
2022/07/06 14:52:19;;;;;;;8.17;3.83;;;;;;;;;;7727608;23;20035;-48
2022/07/06 14:55:21;;;;;;;5.30;3.37;;;;;;;;;;7730262;23;20826;-50
2022/07/06 14:58:22;;;;;;;5.57;3.40;;;;;;;;;;7728408;23;20249;-52
2022/07/06 15:01:23;;;;;;;5.50;3.40;;;;;;;;;;7738534;23;20044;-48
2022/07/06 15:04:23;;;;;;;4.10;3.20;;;;;;;;;;7707389;23;20019;-51
2022/07/06 15:07:24;;;;;;;4.13;3.23;;;;;;;;;;7735752;23;20020;-47
2022/07/06 15:10:24;;;;;;;5.83;3.40;;;;;;;;;;7735080;23;20077;-47
2022/07/06 15:13:25;;;;;;;6.30;3.40;;;;;;;;;;7734868;23;20123;-49
2022/07/06 15:16:26;;;;;;;5.13;2.90;;;;;;;;;;7733512;23;20408;-52
2022/07/06 15:19:27;;;;;;;7.13;4.03;;;;;;;;;;7733548;23;20453;-49
2022/07/06 15:22:27;;;;;;;8.30;4.10;;;;;;;;;;7737766;23;20016;-51
2022/07/06 15:25:28;;;;;;;8.03;3.80;;;;;;;;;;7736689;23;20514;-58
2022/07/06 15:28:29;;;;;;;10.13;4.20;;;;;;;;;;7731419;23;20032;-58
2022/07/06 15:31:31;;;;;;;8.27;4.20;;;;;;;;;;7732866;23;20024;-47
2022/07/06 15:34:31;;;;;;;5.93;4.22;;;;;;;;;;7734281;23;20873;-57
2022/07/06 15:37:33;;;;;;;7.67;4.57;;;;;;;;;;7729758;23;20023;-55
2022/07/06 15:40:39;;;;;;;7.70;4.43;;;;;;;;;;7729854;23;20464;-58
2022/07/06 15:43:40;;;;;;;7.50;4.90;;;;;;;;;;7732625;23;20407;-58
2022/07/06 15:46:41;;;;;;;7.47;4.30;;;;;;;;;;7731893;23;20028;-51
2022/07/06 15:49:42;;;;;;;10.48;4.28;;;;;;;;;;7730626;23;20016;-56
2022/07/06 15:52:42;;;;;;;12.77;4.00;;;;;;;;;;7732923;23;20475;-56
2022/07/06 15:55:44;;;;;;;6.53;3.83;;;;;;;;;;7728947;23;20157;-51
2022/07/06 15:58:44;;;;;;;5.68;3.25;;;;;;;;;;7729187;23;20444;-46
2022/07/06 16:01:45;;;;;;;5.77;3.50;;;;;;;;;;7730529;23;20020;-52
2022/07/06 16:04:46;;;;;;;6.77;3.20;;;;;;;;;;7732697;23;20070;-49
2022/07/06 16:07:47;;;;;;;5.55;3.38;;;;;;;;;;7731311;23;20450;-53
2022/07/06 16:10:47;;;;;;;5.97;3.30;;;;;;;;;;7732984;23;20532;-56
2022/07/06 16:13:48;;;;;;;5.93;3.47;;;;;;;;;;7735752;23;20853;-52
2022/07/06 16:16:48;;;;;;;10.00;3.50;;;;;;;;;;7735430;23;20019;-55
2022/07/06 16:19:49;;;;;;;9.03;3.40;;;;;;;;;;7739651;23;20024;-48
2022/07/06 16:22:49;;;;;;;5.47;3.10;;;;;;;;;;7733433;23;20474;-57
2022/07/06 16:25:50;;;;;;;5.57;3.13;;;;;;;;;;7735116;23;20463;-54
2022/07/06 16:28:51;;;;;;;4.17;2.87;;;;;;;;;;7732725;23;20777;-48
2022/07/06 16:31:52;;;;;;;5.22;2.88;;;;;;;;;;7736823;23;20561;-52
2022/07/06 16:34:52;;;;;;;5.97;2.97;;;;;;;;;;7732547;23;20017;-57
2022/07/06 16:37:55;;;;;;;6.30;2.93;;;;;;;;;;7734152;23;20096;-54
2022/07/06 16:40:55;;;;;;;6.60;3.25;;;;;;;;;;7735395;23;20452;-57
2022/07/06 16:43:56;;;;;;;5.97;3.07;;;;;;;;;;7736402;23;20035;-59
2022/07/06 16:46:56;;;;;;;7.73;2.80;;;;;;;;;;7736598;23;20077;-58
2022/07/06 16:49:58;;;;;;;4.20;2.60;;;;;;;;;;7735233;23;20027;-59
2022/07/06 16:52:58;;;;;;;5.30;2.80;;;;;;;;;;7738970;23;20027;-54
2022/07/06 16:55:59;;;;;;;4.13;3.00;;;;;;;;;;7737642;23;20016;-59
2022/07/06 16:59:00;;;;;;;4.87;2.70;;;;;;;;;;7736760;23;20390;-59
2022/07/06 17:02:00;;;;;;;5.77;3.03;;;;;;;;;;7736917;23;20020;-57
2022/07/06 17:05:01;;;;;;;5.97;2.90;;;;;;;;;;7736244;23;20024;-59
2022/07/06 17:08:01;;;;;;;7.30;3.13;;;;;;;;;;7708191;23;20072;-57
2022/07/06 17:11:02;;;;;;;8.00;3.20;;;;;;;;;;7737376;23;20044;-59
2022/07/06 17:14:03;;;;;;;5.57;3.33;;;;;;;;;;7736048;23;20783;-56
2022/07/06 17:17:03;;;;;;;5.97;3.23;;;;;;;;;;7738224;23;20099;-55
2022/07/06 17:20:06;;;;;;;5.23;2.50;;;;;;;;;;7734075;23;20116;-58
2022/07/06 17:23:07;;;;;;;4.78;2.88;;;;;;;;;;7737659;23;20020;-54
2022/07/06 17:26:07;;;;;;;5.90;2.90;;;;;;;;;;7735107;23;20027;-56
2022/07/06 17:29:08;;;;;;;7.77;2.90;;;;;;;;;;7735134;23;20537;-60
2022/07/06 17:32:09;;;;;;;6.70;2.83;;;;;;;;;;7709860;23;20020;-59
2022/07/06 17:35:09;;;;;;;7.67;3.17;;;;;;;;;;7737813;23;20440;-59
2022/07/06 17:38:10;;;;;;;5.23;3.23;;;;;;;;;;7736340;23;20103;-54
2022/07/06 17:41:11;;;;;;;5.03;3.30;;;;;;;;;;7736354;23;20479;-49
2022/07/06 17:44:12;;;;;;;8.30;3.13;;;;;;;;;;7736464;23;20338;-57
2022/07/06 17:47:24;;;;;;;6.57;2.97;;;;;;;;;;7735529;23;20028;-54
2022/07/06 17:50:25;;;;;;;7.80;3.50;;;;;;;;;;7734506;23;20099;-62
2022/07/06 17:53:26;;;;;;;5.57;2.90;;;;;;;;;;7733591;23;20030;-63
2022/07/06 17:56:27;;;;;;;5.83;3.23;;;;;;;;;;7733683;23;20027;-63
2022/07/06 17:59:27;;;;;;;5.87;2.80;;;;;;;;;;7733633;23;20497;-63